createdAt,value
2023-01-22T00:01:13.491Z,59.72
2023-01-22T00:03:41.640Z,53.63
2023-01-22T00:06:09.899Z,54.78
2023-01-22T00:08:37.828Z,54.67
2023-01-22T00:11:05.758Z,53.85
2023-01-22T00:13:33.369Z,53.80
2023-01-22T00:16:01.092Z,50.03
2023-01-22T00:18:28.553Z,48.10
2023-01-22T00:20:56.131Z,58.45
2023-01-22T00:23:24.485Z,66.97
2023-01-22T00:26:13.004Z,56.25
2023-01-22T00:28:44.021Z,47.72
2023-01-22T00:31:13.183Z,52.70
2023-01-22T00:33:43.684Z,57.10
2023-01-22T00:36:15.270Z,50.45
2023-01-22T00:38:42.968Z,58.28
2023-01-22T00:41:10.939Z,49.42
2023-01-22T00:46:10.644Z,50.97
2023-01-22T00:48:39.116Z,53.42
2023-01-22T00:51:10.565Z,50.55
2023-01-22T00:53:38.140Z,52.10
2023-01-22T00:56:06.161Z,53.78
2023-01-22T00:58:34.125Z,48.80
2023-01-22T01:03:35.031Z,52.05
2023-01-22T01:06:05.674Z,48.92
2023-01-22T01:08:39.467Z,56.20
2023-01-22T01:11:11.126Z,52.15
2023-01-22T01:13:41.977Z,71.72
2023-01-22T01:16:13.841Z,62.47
2023-01-22T01:18:41.980Z,61.15
2023-01-22T01:21:11.911Z,57.42
2023-01-22T01:23:40.001Z,54.15
2023-01-22T01:26:10.053Z,53.10
2023-01-22T01:28:40.940Z,57.33
2023-01-22T01:31:11.515Z,53.45
2023-01-22T01:33:39.652Z,49.05
2023-01-22T01:36:21.317Z,54.70
2023-01-22T01:38:55.364Z,50.90
2023-01-22T01:41:25.549Z,55.05
2023-01-22T01:44:11.346Z,53.30
2023-01-22T01:46:44.225Z,53.58
2023-01-22T01:49:24.455Z,51.72
2023-01-22T01:51:55.297Z,56.78
2023-01-22T01:54:22.862Z,52.13
2023-01-22T01:56:53.480Z,53.78
2023-01-22T01:59:22.584Z,57.28
2023-01-22T02:01:54.591Z,54.00
2023-01-22T02:04:23.902Z,60.95
2023-01-22T02:06:51.382Z,54.13
2023-01-22T02:09:19.034Z,58.50
2023-01-22T02:11:47.092Z,62.75
2023-01-22T02:14:18.381Z,50.83
2023-01-22T02:16:45.947Z,59.75
2023-01-22T02:19:13.425Z,56.88
2023-01-22T02:21:44.758Z,58.30
2023-01-22T02:24:17.076Z,55.30
2023-01-22T02:26:45.939Z,60.45
2023-01-22T02:29:18.004Z,55.00
2023-01-22T02:31:45.612Z,55.50
2023-01-22T02:34:14.270Z,53.10
2023-01-22T02:36:45.679Z,55.58
2023-01-22T02:39:13.141Z,64.30
2023-01-22T02:41:40.731Z,60.78
2023-01-22T02:44:11.194Z,58.42
2023-01-22T02:46:38.795Z,52.03
2023-01-22T02:49:06.561Z,52.30
2023-01-22T02:51:35.513Z,57.03
2023-01-22T02:54:03.111Z,60.65
2023-01-22T02:56:30.887Z,65.68
2023-01-22T02:59:02.130Z,63.30
2023-01-22T03:01:29.917Z,63.42
2023-01-22T03:04:13.604Z,62.20
2023-01-22T03:06:44.546Z,58.60
2023-01-22T03:09:14.663Z,60.60
2023-01-22T03:11:43.868Z,71.07
2023-01-22T03:14:34.519Z,63.20
2023-01-22T03:17:20.926Z,63.72
2023-01-22T03:20:07.062Z,58.47
2023-01-22T03:22:34.996Z,59.38
2023-01-22T03:27:31.659Z,63.00
2023-01-22T03:29:59.430Z,63.67
2023-01-22T03:34:55.764Z,59.08
2023-01-22T03:37:24.727Z,60.92
2023-01-22T03:39:54.843Z,66.57
2023-01-22T03:42:30.976Z,64.97
2023-01-22T03:44:58.563Z,71.28
2023-01-22T03:47:27.287Z,70.47
2023-01-22T03:49:54.858Z,66.57
2023-01-22T03:52:22.479Z,71.68
2023-01-22T03:54:50.025Z,64.28
2023-01-22T03:57:18.065Z,57.72
2023-01-22T03:59:45.732Z,65.95
2023-01-22T04:02:13.354Z,61.80
2023-01-22T04:04:54.312Z,61.38
2023-01-22T04:07:21.839Z,66.03
2023-01-22T04:09:52.687Z,70.80
2023-01-22T04:12:20.273Z,66.70
2023-01-22T04:14:47.809Z,72.30
2023-01-22T04:17:15.592Z,62.53
2023-01-22T04:20:09.267Z,70.03
2023-01-22T04:22:56.189Z,69.10
2023-01-22T04:25:24.079Z,63.30
2023-01-22T04:27:51.767Z,63.92
2023-01-22T04:30:20.411Z,64.28
2023-01-22T04:32:51.901Z,77.80
2023-01-22T04:35:42.427Z,71.97
2023-01-22T04:40:39.451Z,63.63
2023-01-22T04:45:35.645Z,65.20
2023-01-22T04:48:03.392Z,62.22
2023-01-22T04:50:33.153Z,64.57
2023-01-22T04:53:01.348Z,68.38
2023-01-22T04:55:29.331Z,72.32
2023-01-22T04:58:02.622Z,68.43
2023-01-22T05:00:30.749Z,69.28
2023-01-22T05:03:01.735Z,71.00
2023-01-22T05:05:31.404Z,70.00
2023-01-22T05:07:59.974Z,65.70
2023-01-22T05:10:29.163Z,71.65
2023-01-22T05:12:57.553Z,61.67
2023-01-22T05:15:26.536Z,66.35
2023-01-22T05:18:04.838Z,70.93
2023-01-22T05:20:35.789Z,69.88
2023-01-22T05:23:03.234Z,71.18
2023-01-22T05:25:32.063Z,66.93
2023-01-22T05:28:00.175Z,75.15
2023-01-22T05:30:49.151Z,67.40
2023-01-22T05:35:58.706Z,65.88
2023-01-22T05:38:28.135Z,65.50
2023-01-22T05:40:56.315Z,69.05
2023-01-22T05:43:24.019Z,67.70
2023-01-22T05:46:02.974Z,62.17
2023-01-22T05:49:03.271Z,67.07
2023-01-22T05:51:33.097Z,61.33
2023-01-22T05:56:31.806Z,63.42
2023-01-22T05:58:59.590Z,68.63
2023-01-22T06:01:27.763Z,65.85
2023-01-22T06:03:58.034Z,73.03
2023-01-22T06:06:26.696Z,75.22
2023-01-22T06:08:55.937Z,69.15
2023-01-22T06:11:28.278Z,62.60
2023-01-22T06:13:55.793Z,67.28
2023-01-22T06:18:56.664Z,61.22
2023-01-22T06:21:27.613Z,69.28
2023-01-22T06:23:55.875Z,70.30
2023-01-22T06:26:23.537Z,77.30
2023-01-22T06:28:51.035Z,65.50
2023-01-22T06:31:18.573Z,65.15
2023-01-22T06:33:46.584Z,69.05
2023-01-22T06:36:15.798Z,69.78
2023-01-22T06:38:43.747Z,62.55
2023-01-22T06:41:15.689Z,63.67
2023-01-22T06:43:45.202Z,62.92
2023-01-22T06:46:12.845Z,63.00
2023-01-22T06:49:02.639Z,74.18
2023-01-22T06:51:30.851Z,67.28
2023-01-22T06:53:59.594Z,64.93
2023-01-22T06:56:28.240Z,73.53
2023-01-22T06:58:57.637Z,73.18
2023-01-22T07:01:26.086Z,73.07
2023-01-22T07:03:53.770Z,69.85
2023-01-22T07:06:21.423Z,65.47
2023-01-22T07:08:49.255Z,82.60
2023-01-22T07:11:16.683Z,65.90
2023-01-22T07:13:44.169Z,72.43
2023-01-22T07:16:12.773Z,50.83
2023-01-22T07:18:40.270Z,65.38
2023-01-22T07:21:07.809Z,64.22
2023-01-22T07:23:35.387Z,65.57
2023-01-22T07:26:02.868Z,69.28
2023-01-22T07:28:30.381Z,60.58
2023-01-22T07:30:57.991Z,64.32
2023-01-22T07:33:25.628Z,61.58
2023-01-22T07:35:56.934Z,43.50
2023-01-22T07:38:27.359Z,59.08
2023-01-22T07:41:00.107Z,57.03
2023-01-22T07:43:27.910Z,65.05
2023-01-22T07:45:57.934Z,53.15
2023-01-22T07:48:25.428Z,61.40
2023-01-22T07:50:52.947Z,56.15
2023-01-22T07:53:20.521Z,68.68
2023-01-22T07:55:47.977Z,67.60
2023-01-22T07:58:15.482Z,61.58
2023-01-22T08:00:42.968Z,65.22
2023-01-22T08:03:10.620Z,58.90
2023-01-22T08:05:42.652Z,56.28
2023-01-22T08:08:22.821Z,60.83
2023-01-22T08:10:50.304Z,60.63
2023-01-22T08:13:17.740Z,56.75
2023-01-22T08:15:45.744Z,56.17
2023-01-22T08:18:13.259Z,53.42
2023-01-22T08:20:40.677Z,67.53
2023-01-22T08:23:08.105Z,50.60
2023-01-22T08:25:35.664Z,59.08
2023-01-22T08:28:05.009Z,56.58
2023-01-22T08:30:45.211Z,65.13
2023-01-22T08:33:15.579Z,59.25
2023-01-22T08:35:43.225Z,66.70
2023-01-22T08:38:13.401Z,63.35
2023-01-22T08:40:41.055Z,62.00
2023-01-22T08:43:12.749Z,61.25
2023-01-22T08:45:40.371Z,56.97
2023-01-22T08:48:07.912Z,53.08
2023-01-22T08:50:35.427Z,55.38
2023-01-22T08:53:02.921Z,62.35
2023-01-22T08:55:30.433Z,53.80
2023-01-22T08:57:58.316Z,57.17
2023-01-22T09:02:59.739Z,49.72
2023-01-22T09:05:28.441Z,61.58
2023-01-22T09:07:56.001Z,48.33
2023-01-22T09:10:25.859Z,57.65
2023-01-22T09:12:53.446Z,54.20
2023-01-22T09:15:20.952Z,56.05
2023-01-22T09:17:48.502Z,58.13
2023-01-22T09:20:16.736Z,59.03
2023-01-22T09:22:45.816Z,55.28
2023-01-22T09:25:13.572Z,53.67
2023-01-22T09:27:41.072Z,58.05
2023-01-22T09:30:14.462Z,52.63
2023-01-22T09:32:42.047Z,65.53
2023-01-22T09:35:10.031Z,60.30
2023-01-22T09:40:05.287Z,59.50
2023-01-22T09:45:07.128Z,61.10
2023-01-22T09:47:50.067Z,56.65
2023-01-22T09:50:26.783Z,58.95
2023-01-22T09:52:57.905Z,68.35
2023-01-22T09:55:30.339Z,65.63
2023-01-22T09:58:02.813Z,61.60
2023-01-22T10:00:40.732Z,67.85
2023-01-22T10:03:24.813Z,67.63
2023-01-22T10:05:57.871Z,71.75
2023-01-22T10:08:33.703Z,70.90
2023-01-22T10:11:01.597Z,78.93
2023-01-22T10:13:32.475Z,85.63
2023-01-22T10:16:01.438Z,91.32
2023-01-22T10:18:56.543Z,88.03
2023-01-22T10:21:30.616Z,100.95
2023-01-22T10:23:59.317Z,108.57
2023-01-22T10:26:47.997Z,113.40
2023-01-22T10:29:22.654Z,114.45
2023-01-22T10:31:56.102Z,117.80
2023-01-22T10:34:30.301Z,149.95
2023-01-22T10:37:02.867Z,184.98
2023-01-22T10:39:44.866Z,151.07
2023-01-22T10:42:23.765Z,221.95
2023-01-22T10:44:56.586Z,220.85
2023-01-22T10:47:27.443Z,251.88
2023-01-22T10:50:15.426Z,274.75
2023-01-22T10:52:53.641Z,273.50
2023-01-22T10:55:22.399Z,274.60
2023-01-22T10:57:58.591Z,260.40
2023-01-22T11:00:50.293Z,267.13
2023-01-22T11:03:24.256Z,245.85
2023-01-22T11:05:58.790Z,212.10
2023-01-22T11:08:30.873Z,205.57
2023-01-22T11:11:02.873Z,218.15
2023-01-22T11:13:41.992Z,196.15
2023-01-22T11:16:21.170Z,207.85
2023-01-22T11:19:05.299Z,190.70
2023-01-22T11:21:40.643Z,186.77
2023-01-22T11:24:28.026Z,192.07
2023-01-22T11:27:20.355Z,188.43
2023-01-22T11:30:06.044Z,195.35
2023-01-22T11:32:59.205Z,172.63
2023-01-22T11:35:29.655Z,180.30
2023-01-22T11:38:14.919Z,154.45
2023-01-22T11:40:59.755Z,162.10
2023-01-22T11:43:40.446Z,179.65
2023-01-22T11:46:41.997Z,180.05
2023-01-22T11:49:25.371Z,175.40
2023-01-22T11:52:23.043Z,157.40
2023-01-22T11:54:56.417Z,170.85
2023-01-22T11:57:27.337Z,168.60
2023-01-22T12:00:18.229Z,139.10
2023-01-22T12:03:13.459Z,163.73
2023-01-22T12:06:12.781Z,156.00
2023-01-22T12:09:01.652Z,143.00
2023-01-22T12:11:57.271Z,134.48
2023-01-22T12:14:38.178Z,136.50
2023-01-22T12:17:35.877Z,134.57
2023-01-22T12:23:24.553Z,106.88
2023-01-22T12:26:04.222Z,74.35
2023-01-22T12:28:56.348Z,56.42
2023-01-22T12:31:38.164Z,56.20
2023-01-22T12:34:25.540Z,53.15
2023-01-22T12:36:55.273Z,52.10
2023-01-22T12:39:28.178Z,46.33
2023-01-22T12:42:08.387Z,53.78
2023-01-22T12:44:48.014Z,50.45
2023-01-22T12:47:43.494Z,50.00
2023-01-22T12:50:22.664Z,50.05
2023-01-22T12:53:06.131Z,52.42
2023-01-22T12:55:43.949Z,46.47
2023-01-22T12:58:28.511Z,49.80
2023-01-22T13:01:11.412Z,45.38
2023-01-22T13:03:41.311Z,48.30
2023-01-22T13:06:35.293Z,54.20
2023-01-22T13:09:05.264Z,49.60
2023-01-22T13:11:38.212Z,56.95
2023-01-22T13:14:22.874Z,45.75
2023-01-22T13:17:00.029Z,47.90
2023-01-22T13:19:32.212Z,46.33
2023-01-22T13:22:00.842Z,44.20
2023-01-22T13:24:28.634Z,44.72
2023-01-22T13:27:00.032Z,47.22
2023-01-22T13:29:37.538Z,46.30
2023-01-22T13:32:16.374Z,37.25
2023-01-22T13:34:43.841Z,28.67
2023-01-22T13:37:28.223Z,28.60
2023-01-22T13:39:55.764Z,15.27
2023-01-22T13:42:24.695Z,15.93
2023-01-22T13:44:52.568Z,10.95
2023-01-22T13:47:32.728Z,12.07
2023-01-22T13:50:01.749Z,16.15
2023-01-22T13:52:29.386Z,17.73
2023-01-22T13:54:59.892Z,16.10
2023-01-22T13:57:27.348Z,13.25
2023-01-22T14:00:00.055Z,12.38
2023-01-22T14:02:37.092Z,14.02
2023-01-22T14:05:16.416Z,16.00
2023-01-22T14:07:44.167Z,17.67
2023-01-22T14:10:13.662Z,20.27
2023-01-22T14:12:41.375Z,20.35
2023-01-22T14:15:20.155Z,18.58
2023-01-22T14:17:49.806Z,15.98
2023-01-22T14:20:18.768Z,19.70
2023-01-22T14:22:47.269Z,21.85
2023-01-22T14:25:14.740Z,24.13
2023-01-22T14:27:45.251Z,25.05
2023-01-22T14:30:16.213Z,24.73
2023-01-22T14:32:45.255Z,27.77
2023-01-22T14:35:24.414Z,21.75
2023-01-22T14:37:52.442Z,25.20
2023-01-22T14:40:21.862Z,20.90
2023-01-22T14:42:49.757Z,20.17
2023-01-22T14:45:19.197Z,18.35
2023-01-22T14:47:51.725Z,17.13
2023-01-22T14:50:20.295Z,20.13
2023-01-22T14:52:48.580Z,17.35
2023-01-22T14:55:16.282Z,15.75
2023-01-22T14:57:43.975Z,19.55
2023-01-22T15:00:17.313Z,20.25
2023-01-22T15:02:45.338Z,18.13
2023-01-22T15:05:12.821Z,21.90
2023-01-22T15:07:40.652Z,18.27
2023-01-22T15:10:09.168Z,18.45
2023-01-22T15:12:36.636Z,20.58
2023-01-22T15:15:05.018Z,19.10
2023-01-22T15:17:32.462Z,19.10
2023-01-22T15:20:00.240Z,23.50
2023-01-22T15:22:28.490Z,21.88
2023-01-22T15:24:55.903Z,24.55
2023-01-22T15:27:23.503Z,21.33
2023-01-22T15:29:50.907Z,28.17
2023-01-22T15:32:18.401Z,18.13
2023-01-22T15:34:45.904Z,17.00
2023-01-22T15:37:14.842Z,18.67
2023-01-22T15:39:42.411Z,21.48
2023-01-22T15:42:09.892Z,18.58
2023-01-22T15:44:38.585Z,19.83
2023-01-22T15:47:06.394Z,16.52
2023-01-22T15:49:34.803Z,16.45
2023-01-22T15:52:03.425Z,21.30
2023-01-22T15:54:30.911Z,17.17
2023-01-22T15:56:58.390Z,18.35
2023-01-22T15:59:25.810Z,18.70
2023-01-22T16:01:53.433Z,22.35
2023-01-22T16:04:20.884Z,22.17
2023-01-22T16:06:48.451Z,22.63
2023-01-22T16:09:15.909Z,20.92
2023-01-22T16:11:43.386Z,24.70
2023-01-22T16:14:10.942Z,27.10
2023-01-22T16:16:38.876Z,23.88
2023-01-22T16:21:35.467Z,26.02
2023-01-22T16:24:03.465Z,38.83
2023-01-22T16:29:05.534Z,28.73
2023-01-22T16:31:35.132Z,33.80
2023-01-22T16:34:11.912Z,38.53
2023-01-22T16:36:40.385Z,37.75
2023-01-22T16:39:08.764Z,35.08
2023-01-22T16:41:37.362Z,36.97
2023-01-22T16:44:13.259Z,33.42
2023-01-22T16:46:44.000Z,35.08
2023-01-22T16:49:20.704Z,37.90
2023-01-22T16:51:51.117Z,37.58
2023-01-22T16:54:24.119Z,37.75
2023-01-22T16:56:51.792Z,33.67
2023-01-22T16:59:19.358Z,31.73
2023-01-22T17:01:46.926Z,39.20
2023-01-22T17:04:14.906Z,36.75
2023-01-22T17:06:45.074Z,42.95
2023-01-22T17:09:16.548Z,40.58
2023-01-22T17:11:51.178Z,38.35
2023-01-22T17:14:20.993Z,41.80
2023-01-22T17:16:49.007Z,44.92
2023-01-22T17:21:44.535Z,38.65
2023-01-22T17:24:13.117Z,43.47
2023-01-22T17:26:42.137Z,39.97
2023-01-22T17:29:10.063Z,41.90
2023-01-22T17:34:12.850Z,48.75
2023-01-22T17:36:43.961Z,41.95
2023-01-22T17:39:15.991Z,46.50
2023-01-22T17:41:44.827Z,48.67
2023-01-22T17:44:13.032Z,46.92
2023-01-22T17:46:40.651Z,46.22
2023-01-22T17:49:08.126Z,51.00
2023-01-22T17:51:35.697Z,52.53
2023-01-22T17:54:04.214Z,48.78
2023-01-22T17:56:37.103Z,59.60
2023-01-22T17:59:07.549Z,53.95
2023-01-22T18:01:36.762Z,58.72
2023-01-22T18:04:06.689Z,73.18
2023-01-22T18:06:35.036Z,71.35
2023-01-22T18:09:05.080Z,66.32
2023-01-22T18:11:33.981Z,59.08
2023-01-22T18:14:05.703Z,55.83
2023-01-22T18:16:35.811Z,59.78
2023-01-22T18:19:05.942Z,56.70
2023-01-22T18:21:35.031Z,61.28
2023-01-22T18:24:03.975Z,62.42
2023-01-22T18:26:32.322Z,63.05
2023-01-22T18:29:00.200Z,62.97
2023-01-22T18:31:29.315Z,62.67
2023-01-22T18:34:01.315Z,63.58
2023-01-22T18:36:32.231Z,75.28
2023-01-22T18:39:01.500Z,59.42
2023-01-22T18:41:29.308Z,68.68
2023-01-22T18:43:59.727Z,58.17
2023-01-22T18:46:30.216Z,63.25
2023-01-22T18:49:02.411Z,60.80
2023-01-22T18:51:31.509Z,64.93
2023-01-22T18:53:59.420Z,58.95
2023-01-22T18:58:55.241Z,58.60
2023-01-22T19:01:30.217Z,62.17
2023-01-22T19:04:02.279Z,56.95
2023-01-22T19:06:32.049Z,60.92
2023-01-22T19:09:06.315Z,62.03
2023-01-22T19:11:38.336Z,59.95
2023-01-22T19:14:07.256Z,57.92
2023-01-22T19:16:36.100Z,61.10
2023-01-22T19:19:11.016Z,64.85
2023-01-22T19:21:46.697Z,66.55
2023-01-22T19:24:16.400Z,66.78
2023-01-22T19:26:46.395Z,55.67
2023-01-22T19:29:19.685Z,70.57
2023-01-22T19:31:51.873Z,70.53
2023-01-22T19:34:24.793Z,67.15
2023-01-22T19:36:55.229Z,75.40
2023-01-22T19:39:25.302Z,62.55
2023-01-22T19:41:54.083Z,66.22
2023-01-22T19:44:21.873Z,65.53
2023-01-22T19:46:49.452Z,63.97
2023-01-22T19:49:17.112Z,73.97
2023-01-22T19:51:44.806Z,69.93
2023-01-22T19:54:12.523Z,69.57
2023-01-22T19:56:45.525Z,69.40
2023-01-22T19:59:19.351Z,61.85
2023-01-22T20:01:48.623Z,60.38
2023-01-22T20:04:23.882Z,56.92
2023-01-22T20:07:03.136Z,57.58
2023-01-22T20:09:33.398Z,68.55
2023-01-22T20:12:01.174Z,64.72
2023-01-22T20:14:34.203Z,69.13
2023-01-22T20:17:02.539Z,68.25
2023-01-22T20:19:30.855Z,69.53
2023-01-22T20:21:59.510Z,77.40
2023-01-22T20:24:28.188Z,83.55
2023-01-22T20:26:58.019Z,71.22
2023-01-22T20:29:25.801Z,91.90
2023-01-22T20:36:48.993Z,67.72
2023-01-22T20:39:16.657Z,77.43
2023-01-22T20:41:45.730Z,72.70
2023-01-22T20:44:13.985Z,79.50
2023-01-22T20:49:12.590Z,72.93
2023-01-22T20:51:41.880Z,83.88
2023-01-22T20:54:09.897Z,88.13
2023-01-22T20:56:37.414Z,85.97
2023-01-22T20:59:07.932Z,83.15
2023-01-22T21:01:36.120Z,89.10
2023-01-22T21:04:04.643Z,89.60
2023-01-22T21:06:34.491Z,84.60
2023-01-22T21:09:03.411Z,89.45
2023-01-22T21:11:34.275Z,87.38
2023-01-22T21:14:05.059Z,92.93
2023-01-22T21:16:35.838Z,86.88
2023-01-22T21:19:06.631Z,81.28
2023-01-22T21:21:35.575Z,76.55
2023-01-22T21:24:03.640Z,72.45
2023-01-22T21:29:02.458Z,76.82
2023-01-22T21:31:31.114Z,69.00
2023-01-22T21:34:03.235Z,74.05
2023-01-22T21:36:34.813Z,74.00
2023-01-22T21:39:04.140Z,66.82
2023-01-22T21:41:31.633Z,75.13
2023-01-22T21:44:18.251Z,72.80
2023-01-22T21:46:46.990Z,68.43
2023-01-22T21:49:22.569Z,68.72
2023-01-22T21:52:02.288Z,70.30
2023-01-22T21:54:33.738Z,70.32
2023-01-22T21:57:01.938Z,70.40
2023-01-22T21:59:29.716Z,66.80
2023-01-22T22:01:57.527Z,63.70
2023-01-22T22:06:54.528Z,66.15
2023-01-22T22:09:24.657Z,79.05
2023-01-22T22:11:55.715Z,74.80
2023-01-22T22:14:24.374Z,71.75
2023-01-22T22:16:52.317Z,74.22
2023-01-22T22:19:20.765Z,72.90
2023-01-22T22:21:50.589Z,74.85
2023-01-22T22:24:19.273Z,73.28
2023-01-22T22:26:47.012Z,65.95
2023-01-22T22:29:14.497Z,61.90
2023-01-22T22:31:41.995Z,63.92
2023-01-22T22:34:09.505Z,64.75
2023-01-22T22:36:37.130Z,64.63
2023-01-22T22:39:06.446Z,63.53
2023-01-22T22:41:36.868Z,60.03
2023-01-22T22:44:05.704Z,58.70
2023-01-22T22:46:36.553Z,69.85
2023-01-22T22:49:05.243Z,58.47
2023-01-22T22:51:38.044Z,65.97
2023-01-22T22:54:08.143Z,60.50
2023-01-22T22:56:35.733Z,62.85
2023-01-22T22:59:04.267Z,65.57
2023-01-22T23:01:33.147Z,59.35
2023-01-22T23:04:02.511Z,61.42
2023-01-22T23:06:33.062Z,61.17
2023-01-22T23:09:12.227Z,58.35
2023-01-22T23:11:39.994Z,61.70
2023-01-22T23:14:08.670Z,69.80
2023-01-22T23:16:38.607Z,60.75
2023-01-22T23:19:08.923Z,59.53
2023-01-22T23:21:40.636Z,61.83
2023-01-22T23:24:10.318Z,55.75
2023-01-22T23:26:38.956Z,59.10
2023-01-22T23:29:09.638Z,59.78
2023-01-22T23:31:38.401Z,61.20
2023-01-22T23:34:09.115Z,54.20
2023-01-22T23:36:36.885Z,56.45
2023-01-22T23:39:04.557Z,57.05
2023-01-22T23:41:32.556Z,62.42
2023-01-22T23:43:59.998Z,58.83
2023-01-22T23:46:29.023Z,60.78
2023-01-22T23:48:58.935Z,58.15
2023-01-22T23:51:27.156Z,45.53
2023-01-22T23:53:54.856Z,53.80
2023-01-22T23:56:26.938Z,50.53
2023-01-22T23:58:56.012Z,50.53
